sensor_id;sensor_type;location;lat;lon;timestamp;P1;durP1;ratioP1;P2;durP2;ratioP2
2944;SDS011;1482;51.398;7.128;2023-06-14T00:01:40;9.60;;;7.23;;
2944;SDS011;1482;51.398;7.128;2023-06-14T00:04:06;7.63;;;6.90;;
2944;SDS011;1482;51.398;7.128;2023-06-14T00:06:33;11.10;;;7.90;;
2944;SDS011;1482;51.398;7.128;2023-06-14T00:08:59;13.97;;;6.40;;
2944;SDS011;1482;51.398;7.128;2023-06-14T00:11:24;8.70;;;7.90;;
2944;SDS011;1482;51.398;7.128;2023-06-14T00:13:51;7.83;;;7.00;;
2944;SDS011;1482;51.398;7.128;2023-06-14T00:16:17;7.63;;;6.90;;
2944;SDS011;1482;51.398;7.128;2023-06-14T00:18:44;8.90;;;6.47;;
2944;SDS011;1482;51.398;7.128;2023-06-14T00:21:10;8.87;;;7.97;;
2944;SDS011;1482;51.398;7.128;2023-06-14T00:23:37;9.23;;;6.97;;
2944;SDS011;1482;51.398;7.128;2023-06-14T00:26:02;8.43;;;7.63;;
2944;SDS011;1482;51.398;7.128;2023-06-14T00:28:28;7.73;;;6.93;;
2944;SDS011;1482;51.398;7.128;2023-06-14T00:30:53;11.40;;;7.67;;
2944;SDS011;1482;51.398;7.128;2023-06-14T00:33:19;10.07;;;7.70;;
2944;SDS011;1482;51.398;7.128;2023-06-14T00:35:45;8.27;;;7.47;;
2944;SDS011;1482;51.398;7.128;2023-06-14T00:38:11;12.13;;;7.93;;
2944;SDS011;1482;51.398;7.128;2023-06-14T00:40:37;10.93;;;7.50;;
2944;SDS011;1482;51.398;7.128;2023-06-14T00:43:03;8.10;;;7.30;;
2944;SDS011;1482;51.398;7.128;2023-06-14T00:45:28;7.80;;;7.03;;
2944;SDS011;1482;51.398;7.128;2023-06-14T00:47:56;8.13;;;7.33;;
2944;SDS011;1482;51.398;7.128;2023-06-14T00:50:22;10.30;;;8.70;;
2944;SDS011;1482;51.398;7.128;2023-06-14T00:52:48;12.13;;;7.10;;
2944;SDS011;1482;51.398;7.128;2023-06-14T00:55:14;12.83;;;8.60;;
2944;SDS011;1482;51.398;7.128;2023-06-14T00:57:40;9.80;;;8.80;;
2944;SDS011;1482;51.398;7.128;2023-06-14T01:00:06;9.57;;;8.60;;
2944;SDS011;1482;51.398;7.128;2023-06-14T01:02:35;8.13;;;7.30;;
2944;SDS011;1482;51.398;7.128;2023-06-14T01:05:04;8.87;;;8.03;;
2944;SDS011;1482;51.398;7.128;2023-06-14T01:11:36;10.23;;;8.20;;
2944;SDS011;1482;51.398;7.128;2023-06-14T01:13:56;8.90;;;7.53;;
2944;SDS011;1482;51.398;7.128;2023-06-14T01:16:24;14.90;;;9.23;;
2944;SDS011;1482;51.398;7.128;2023-06-14T01:18:52;9.90;;;9.00;;
2944;SDS011;1482;51.398;7.128;2023-06-14T01:21:24;8.70;;;7.43;;
2944;SDS011;1482;51.398;7.128;2023-06-14T01:23:53;8.13;;;7.33;;
2944;SDS011;1482;51.398;7.128;2023-06-14T01:26:20;9.93;;;7.70;;
2944;SDS011;1482;51.398;7.128;2023-06-14T01:28:46;18.00;;;8.07;;
2944;SDS011;1482;51.398;7.128;2023-06-14T01:31:16;11.20;;;8.07;;
2944;SDS011;1482;51.398;7.128;2023-06-14T01:33:43;11.17;;;7.93;;
2944;SDS011;1482;51.398;7.128;2023-06-14T01:36:09;8.57;;;7.53;;
2944;SDS011;1482;51.398;7.128;2023-06-14T01:38:36;9.73;;;7.67;;
2944;SDS011;1482;51.398;7.128;2023-06-14T01:41:02;12.87;;;7.80;;
2944;SDS011;1482;51.398;7.128;2023-06-14T01:43:30;10.60;;;7.60;;
2944;SDS011;1482;51.398;7.128;2023-06-14T01:45:56;11.07;;;8.33;;
2944;SDS011;1482;51.398;7.128;2023-06-14T01:48:22;13.30;;;8.00;;
2944;SDS011;1482;51.398;7.128;2023-06-14T01:50:49;10.30;;;7.00;;
2944;SDS011;1482;51.398;7.128;2023-06-14T01:53:15;10.13;;;7.50;;
2944;SDS011;1482;51.398;7.128;2023-06-14T01:55:40;11.97;;;8.03;;
2944;SDS011;1482;51.398;7.128;2023-06-14T01:58:08;10.40;;;8.10;;
2944;SDS011;1482;51.398;7.128;2023-06-14T02:00:37;8.93;;;7.97;;
2944;SDS011;1482;51.398;7.128;2023-06-14T02:03:02;8.97;;;7.90;;
2944;SDS011;1482;51.398;7.128;2023-06-14T02:05:31;9.00;;;7.63;;
2944;SDS011;1482;51.398;7.128;2023-06-14T02:07:56;9.10;;;7.60;;
2944;SDS011;1482;51.398;7.128;2023-06-14T02:10:22;8.97;;;7.83;;
2944;SDS011;1482;51.398;7.128;2023-06-14T02:12:48;10.93;;;7.70;;
2944;SDS011;1482;51.398;7.128;2023-06-14T02:15:13;10.83;;;7.57;;
2944;SDS011;1482;51.398;7.128;2023-06-14T02:17:44;9.47;;;8.13;;
2944;SDS011;1482;51.398;7.128;2023-06-14T02:20:12;11.00;;;7.83;;
2944;SDS011;1482;51.398;7.128;2023-06-14T02:22:38;8.07;;;7.27;;
2944;SDS011;1482;51.398;7.128;2023-06-14T02:25:04;7.23;;;6.50;;
2944;SDS011;1482;51.398;7.128;2023-06-14T02:27:29;8.90;;;7.83;;
2944;SDS011;1482;51.398;7.128;2023-06-14T02:29:55;11.90;;;6.97;;
2944;SDS011;1482;51.398;7.128;2023-06-14T02:32:20;9.23;;;7.07;;
2944;SDS011;1482;51.398;7.128;2023-06-14T02:34:46;11.73;;;7.40;;
2944;SDS011;1482;51.398;7.128;2023-06-14T02:37:14;9.23;;;8.33;;
2944;SDS011;1482;51.398;7.128;2023-06-14T02:39:40;8.17;;;6.90;;
2944;SDS011;1482;51.398;7.128;2023-06-14T02:42:06;8.87;;;7.30;;
2944;SDS011;1482;51.398;7.128;2023-06-14T02:44:32;10.13;;;7.53;;
2944;SDS011;1482;51.398;7.128;2023-06-14T02:46:57;14.20;;;8.30;;
2944;SDS011;1482;51.398;7.128;2023-06-14T02:49:25;10.37;;;8.20;;
2944;SDS011;1482;51.398;7.128;2023-06-14T02:51:51;8.50;;;7.00;;
2944;SDS011;1482;51.398;7.128;2023-06-14T02:54:16;9.07;;;7.50;;
2944;SDS011;1482;51.398;7.128;2023-06-14T02:56:42;10.70;;;7.13;;
2944;SDS011;1482;51.398;7.128;2023-06-14T02:59:08;10.40;;;8.20;;
2944;SDS011;1482;51.398;7.128;2023-06-14T03:01:34;13.70;;;7.30;;
2944;SDS011;1482;51.398;7.128;2023-06-14T03:04:03;8.80;;;7.47;;
2944;SDS011;1482;51.398;7.128;2023-06-14T03:06:29;8.60;;;7.07;;
2944;SDS011;1482;51.398;7.128;2023-06-14T03:08:56;7.67;;;6.87;;
2944;SDS011;1482;51.398;7.128;2023-06-14T03:11:28;10.10;;;7.80;;
2944;SDS011;1482;51.398;7.128;2023-06-14T03:13:54;9.80;;;7.57;;
2944;SDS011;1482;51.398;7.128;2023-06-14T03:16:21;8.07;;;7.23;;
2944;SDS011;1482;51.398;7.128;2023-06-14T03:18:49;8.37;;;7.20;;
2944;SDS011;1482;51.398;7.128;2023-06-14T03:21:16;15.27;;;7.33;;
2944;SDS011;1482;51.398;7.128;2023-06-14T03:23:42;11.20;;;7.60;;
2944;SDS011;1482;51.398;7.128;2023-06-14T03:26:08;8.47;;;6.70;;
2944;SDS011;1482;51.398;7.128;2023-06-14T03:28:33;9.53;;;7.50;;
2944;SDS011;1482;51.398;7.128;2023-06-14T03:30:59;10.40;;;7.53;;
2944;SDS011;1482;51.398;7.128;2023-06-14T03:33:25;11.10;;;6.77;;
2944;SDS011;1482;51.398;7.128;2023-06-14T03:35:50;8.40;;;7.13;;
2944;SDS011;1482;51.398;7.128;2023-06-14T03:38:16;10.00;;;7.10;;
2944;SDS011;1482;51.398;7.128;2023-06-14T03:40:42;7.17;;;6.47;;
2944;SDS011;1482;51.398;7.128;2023-06-14T03:43:09;7.60;;;6.27;;
2944;SDS011;1482;51.398;7.128;2023-06-14T03:45:35;9.10;;;8.10;;
2944;SDS011;1482;51.398;7.128;2023-06-14T03:48:00;10.70;;;7.20;;
2944;SDS011;1482;51.398;7.128;2023-06-14T03:50:26;9.50;;;7.20;;
2944;SDS011;1482;51.398;7.128;2023-06-14T03:52:52;10.93;;;7.77;;
2944;SDS011;1482;51.398;7.128;2023-06-14T03:55:18;8.97;;;6.90;;
2944;SDS011;1482;51.398;7.128;2023-06-14T03:57:43;7.37;;;6.30;;
2944;SDS011;1482;51.398;7.128;2023-06-14T04:00:09;9.50;;;7.33;;
2944;SDS011;1482;51.398;7.128;2023-06-14T04:02:36;6.87;;;6.13;;
2944;SDS011;1482;51.398;7.128;2023-06-14T04:05:02;8.07;;;7.17;;
2944;SDS011;1482;51.398;7.128;2023-06-14T04:07:28;7.07;;;6.43;;
2944;SDS011;1482;51.398;7.128;2023-06-14T04:09:54;8.53;;;5.57;;
2944;SDS011;1482;51.398;7.128;2023-06-14T04:12:20;7.60;;;5.80;;
2944;SDS011;1482;51.398;7.128;2023-06-14T04:14:46;7.50;;;6.80;;
2944;SDS011;1482;51.398;7.128;2023-06-14T04:17:11;7.20;;;6.50;;
2944;SDS011;1482;51.398;7.128;2023-06-14T04:19:37;9.50;;;6.07;;
2944;SDS011;1482;51.398;7.128;2023-06-14T04:22:02;7.30;;;6.37;;
2944;SDS011;1482;51.398;7.128;2023-06-14T04:24:28;7.90;;;6.10;;
2944;SDS011;1482;51.398;7.128;2023-06-14T04:26:57;8.40;;;6.00;;
2944;SDS011;1482;51.398;7.128;2023-06-14T04:29:23;10.40;;;7.10;;
2944;SDS011;1482;51.398;7.128;2023-06-14T04:31:51;9.10;;;5.80;;
2944;SDS011;1482;51.398;7.128;2023-06-14T04:34:19;8.37;;;6.27;;
2944;SDS011;1482;51.398;7.128;2023-06-14T04:36:46;16.10;;;5.90;;
2944;SDS011;1482;51.398;7.128;2023-06-14T04:39:18;7.70;;;5.60;;
2944;SDS011;1482;51.398;7.128;2023-06-14T04:41:44;11.17;;;6.73;;
2944;SDS011;1482;51.398;7.128;2023-06-14T04:44:10;8.43;;;6.43;;
2944;SDS011;1482;51.398;7.128;2023-06-14T04:46:37;8.50;;;6.07;;
2944;SDS011;1482;51.398;7.128;2023-06-14T04:49:10;11.10;;;6.53;;
2944;SDS011;1482;51.398;7.128;2023-06-14T04:51:45;7.03;;;6.03;;
2944;SDS011;1482;51.398;7.128;2023-06-14T04:54:11;9.50;;;6.13;;
2944;SDS011;1482;51.398;7.128;2023-06-14T04:56:40;8.43;;;6.40;;
2944;SDS011;1482;51.398;7.128;2023-06-14T04:59:07;9.40;;;8.57;;
2944;SDS011;1482;51.398;7.128;2023-06-14T05:01:33;7.50;;;6.77;;
2944;SDS011;1482;51.398;7.128;2023-06-14T05:03:59;7.90;;;6.00;;
2944;SDS011;1482;51.398;7.128;2023-06-14T05:06:25;10.47;;;5.90;;
2944;SDS011;1482;51.398;7.128;2023-06-14T05:08:53;10.20;;;5.07;;
2944;SDS011;1482;51.398;7.128;2023-06-14T05:11:19;6.47;;;5.73;;
2944;SDS011;1482;51.398;7.128;2023-06-14T05:13:45;9.83;;;7.03;;
2944;SDS011;1482;51.398;7.128;2023-06-14T05:16:11;7.37;;;5.83;;
2944;SDS011;1482;51.398;7.128;2023-06-14T05:18:37;7.63;;;6.83;;
2944;SDS011;1482;51.398;7.128;2023-06-14T05:21:03;9.50;;;7.00;;
2944;SDS011;1482;51.398;7.128;2023-06-14T05:23:32;8.23;;;7.43;;
2944;SDS011;1482;51.398;7.128;2023-06-14T05:25:57;8.13;;;7.33;;
2944;SDS011;1482;51.398;7.128;2023-06-14T05:28:23;7.83;;;5.60;;
2944;SDS011;1482;51.398;7.128;2023-06-14T05:30:49;7.67;;;6.80;;
2944;SDS011;1482;51.398;7.128;2023-06-14T05:33:15;12.80;;;6.53;;
2944;SDS011;1482;51.398;7.128;2023-06-14T05:35:41;7.17;;;6.57;;
2944;SDS011;1482;51.398;7.128;2023-06-14T05:38:06;8.10;;;6.83;;
2944;SDS011;1482;51.398;7.128;2023-06-14T05:40:32;8.87;;;5.80;;
2944;SDS011;1482;51.398;7.128;2023-06-14T05:42:58;8.33;;;6.07;;
2944;SDS011;1482;51.398;7.128;2023-06-14T05:45:24;10.57;;;5.20;;
2944;SDS011;1482;51.398;7.128;2023-06-14T05:47:49;7.07;;;5.40;;
2944;SDS011;1482;51.398;7.128;2023-06-14T05:50:15;13.80;;;5.70;;
2944;SDS011;1482;51.398;7.128;2023-06-14T05:52:41;5.60;;;5.10;;
2944;SDS011;1482;51.398;7.128;2023-06-14T05:55:06;8.47;;;4.77;;
2944;SDS011;1482;51.398;7.128;2023-06-14T05:57:32;6.50;;;4.77;;
2944;SDS011;1482;51.398;7.128;2023-06-14T05:59:58;6.07;;;5.47;;
2944;SDS011;1482;51.398;7.128;2023-06-14T06:02:23;7.40;;;5.70;;
2944;SDS011;1482;51.398;7.128;2023-06-14T06:04:49;6.40;;;4.37;;
2944;SDS011;1482;51.398;7.128;2023-06-14T06:07:15;7.00;;;5.50;;
2944;SDS011;1482;51.398;7.128;2023-06-14T06:09:41;6.87;;;4.50;;
2944;SDS011;1482;51.398;7.128;2023-06-14T06:12:07;6.50;;;5.07;;
2944;SDS011;1482;51.398;7.128;2023-06-14T06:14:32;8.57;;;5.13;;
2944;SDS011;1482;51.398;7.128;2023-06-14T06:16:58;6.53;;;4.87;;
2944;SDS011;1482;51.398;7.128;2023-06-14T06:19:24;5.00;;;4.40;;
2944;SDS011;1482;51.398;7.128;2023-06-14T06:21:50;7.03;;;4.70;;
2944;SDS011;1482;51.398;7.128;2023-06-14T06:24:16;6.90;;;4.97;;
2944;SDS011;1482;51.398;7.128;2023-06-14T06:26:41;8.50;;;4.50;;
2944;SDS011;1482;51.398;7.128;2023-06-14T06:29:07;5.40;;;4.90;;
2944;SDS011;1482;51.398;7.128;2023-06-14T06:31:32;6.57;;;4.37;;
2944;SDS011;1482;51.398;7.128;2023-06-14T06:33:58;5.60;;;4.40;;
2944;SDS011;1482;51.398;7.128;2023-06-14T06:36:24;5.20;;;4.40;;
2944;SDS011;1482;51.398;7.128;2023-06-14T06:38:49;5.60;;;4.27;;
2944;SDS011;1482;51.398;7.128;2023-06-14T06:41:15;6.30;;;4.03;;
2944;SDS011;1482;51.398;7.128;2023-06-14T06:43:41;5.80;;;3.97;;
2944;SDS011;1482;51.398;7.128;2023-06-14T06:46:06;8.67;;;4.20;;
2944;SDS011;1482;51.398;7.128;2023-06-14T06:48:32;6.63;;;3.30;;
2944;SDS011;1482;51.398;7.128;2023-06-14T06:50:57;9.20;;;3.10;;
2944;SDS011;1482;51.398;7.128;2023-06-14T06:53:23;7.00;;;3.40;;
2944;SDS011;1482;51.398;7.128;2023-06-14T06:55:48;11.00;;;3.80;;
2944;SDS011;1482;51.398;7.128;2023-06-14T06:58:14;7.97;;;3.87;;
2944;SDS011;1482;51.398;7.128;2023-06-14T07:00:40;6.27;;;3.70;;
2944;SDS011;1482;51.398;7.128;2023-06-14T07:03:06;3.30;;;2.70;;
2944;SDS011;1482;51.398;7.128;2023-06-14T07:05:31;7.13;;;2.63;;
2944;SDS011;1482;51.398;7.128;2023-06-14T07:07:57;8.50;;;2.90;;
2944;SDS011;1482;51.398;7.128;2023-06-14T07:10:23;2.63;;;2.43;;
2944;SDS011;1482;51.398;7.128;2023-06-14T07:12:49;4.00;;;2.70;;
2944;SDS011;1482;51.398;7.128;2023-06-14T07:15:15;4.70;;;3.00;;
2944;SDS011;1482;51.398;7.128;2023-06-14T07:17:41;5.37;;;3.37;;
2944;SDS011;1482;51.398;7.128;2023-06-14T07:20:07;6.30;;;3.67;;
2944;SDS011;1482;51.398;7.128;2023-06-14T07:22:43;2.93;;;2.60;;
2944;SDS011;1482;51.398;7.128;2023-06-14T07:25:09;5.87;;;2.97;;
2944;SDS011;1482;51.398;7.128;2023-06-14T07:27:38;6.10;;;3.20;;
2944;SDS011;1482;51.398;7.128;2023-06-14T07:30:05;5.93;;;3.87;;
2944;SDS011;1482;51.398;7.128;2023-06-14T07:32:31;6.30;;;3.27;;
2944;SDS011;1482;51.398;7.128;2023-06-14T07:34:57;3.30;;;2.70;;
2944;SDS011;1482;51.398;7.128;2023-06-14T07:37:23;6.20;;;3.20;;
2944;SDS011;1482;51.398;7.128;2023-06-14T07:39:48;3.00;;;2.70;;
2944;SDS011;1482;51.398;7.128;2023-06-14T07:42:14;3.97;;;3.67;;
2944;SDS011;1482;51.398;7.128;2023-06-14T07:44:39;4.10;;;2.90;;
2944;SDS011;1482;51.398;7.128;2023-06-14T07:47:05;2.80;;;2.60;;
2944;SDS011;1482;51.398;7.128;2023-06-14T07:49:31;2.90;;;2.30;;
2944;SDS011;1482;51.398;7.128;2023-06-14T07:51:56;3.60;;;2.63;;
2944;SDS011;1482;51.398;7.128;2023-06-14T07:54:22;8.10;;;2.40;;
2944;SDS011;1482;51.398;7.128;2023-06-14T07:56:51;5.70;;;2.40;;
2944;SDS011;1482;51.398;7.128;2023-06-14T07:59:17;2.77;;;2.57;;
2944;SDS011;1482;51.398;7.128;2023-06-14T08:01:42;4.73;;;3.17;;
2944;SDS011;1482;51.398;7.128;2023-06-14T08:04:12;9.40;;;2.70;;
2944;SDS011;1482;51.398;7.128;2023-06-14T08:06:38;3.30;;;2.70;;
2944;SDS011;1482;51.398;7.128;2023-06-14T08:09:04;4.00;;;2.50;;
2944;SDS011;1482;51.398;7.128;2023-06-14T08:11:30;3.60;;;3.27;;
2944;SDS011;1482;51.398;7.128;2023-06-14T08:13:56;5.60;;;3.03;;
2944;SDS011;1482;51.398;7.128;2023-06-14T08:16:21;2.60;;;2.40;;
2944;SDS011;1482;51.398;7.128;2023-06-14T08:18:47;4.87;;;3.10;;
2944;SDS011;1482;51.398;7.128;2023-06-14T08:21:13;3.00;;;2.80;;
2944;SDS011;1482;51.398;7.128;2023-06-14T08:23:39;4.13;;;3.20;;
2944;SDS011;1482;51.398;7.128;2023-06-14T08:26:07;4.73;;;3.10;;
2944;SDS011;1482;51.398;7.128;2023-06-14T08:28:33;3.73;;;3.40;;
2944;SDS011;1482;51.398;7.128;2023-06-14T08:30:59;3.50;;;3.20;;
2944;SDS011;1482;51.398;7.128;2023-06-14T08:33:25;2.90;;;2.60;;
2944;SDS011;1482;51.398;7.128;2023-06-14T08:35:50;3.87;;;2.30;;
2944;SDS011;1482;51.398;7.128;2023-06-14T08:38:16;2.67;;;2.20;;
2944;SDS011;1482;51.398;7.128;2023-06-14T08:40:42;4.90;;;2.30;;
2944;SDS011;1482;51.398;7.128;2023-06-14T08:43:07;2.37;;;1.93;;
2944;SDS011;1482;51.398;7.128;2023-06-14T08:45:33;5.90;;;2.73;;
2944;SDS011;1482;51.398;7.128;2023-06-14T08:47:59;3.60;;;2.90;;
2944;SDS011;1482;51.398;7.128;2023-06-14T08:50:25;3.53;;;2.53;;
2944;SDS011;1482;51.398;7.128;2023-06-14T08:52:54;2.80;;;2.60;;
2944;SDS011;1482;51.398;7.128;2023-06-14T08:55:22;4.60;;;2.70;;
2944;SDS011;1482;51.398;7.128;2023-06-14T08:57:52;8.47;;;2.87;;
2944;SDS011;1482;51.398;7.128;2023-06-14T09:00:19;3.77;;;2.80;;
2944;SDS011;1482;51.398;7.128;2023-06-14T09:02:46;3.53;;;2.60;;
2944;SDS011;1482;51.398;7.128;2023-06-14T09:05:12;2.80;;;2.60;;
2944;SDS011;1482;51.398;7.128;2023-06-14T09:07:41;2.77;;;2.30;;
2944;SDS011;1482;51.398;7.128;2023-06-14T09:10:09;3.50;;;2.40;;
2944;SDS011;1482;51.398;7.128;2023-06-14T09:12:36;2.63;;;2.30;;
2944;SDS011;1482;51.398;7.128;2023-06-14T09:15:03;2.13;;;1.93;;
2944;SDS011;1482;51.398;7.128;2023-06-14T09:17:40;5.50;;;2.40;;
2944;SDS011;1482;51.398;7.128;2023-06-14T09:20:07;3.93;;;1.97;;
2944;SDS011;1482;51.398;7.128;2023-06-14T09:22:38;4.23;;;2.30;;
2944;SDS011;1482;51.398;7.128;2023-06-14T09:25:05;3.40;;;2.40;;
2944;SDS011;1482;51.398;7.128;2023-06-14T09:27:31;4.40;;;2.20;;
2944;SDS011;1482;51.398;7.128;2023-06-14T09:29:57;3.53;;;2.10;;
2944;SDS011;1482;51.398;7.128;2023-06-14T09:32:23;2.70;;;2.50;;
2944;SDS011;1482;51.398;7.128;2023-06-14T09:34:49;3.07;;;2.67;;
2944;SDS011;1482;51.398;7.128;2023-06-14T09:37:28;4.93;;;2.00;;
2944;SDS011;1482;51.398;7.128;2023-06-14T09:39:57;2.43;;;1.77;;
2944;SDS011;1482;51.398;7.128;2023-06-14T09:42:23;2.60;;;2.10;;
2944;SDS011;1482;51.398;7.128;2023-06-14T09:44:53;1.97;;;1.77;;
2944;SDS011;1482;51.398;7.128;2023-06-14T09:47:20;2.97;;;2.50;;
2944;SDS011;1482;51.398;7.128;2023-06-14T09:49:46;2.47;;;2.27;;
2944;SDS011;1482;51.398;7.128;2023-06-14T09:52:17;4.40;;;2.30;;
2944;SDS011;1482;51.398;7.128;2023-06-14T09:54:43;2.03;;;1.80;;
2944;SDS011;1482;51.398;7.128;2023-06-14T09:57:13;11.17;;;2.40;;
2944;SDS011;1482;51.398;7.128;2023-06-14T09:59:43;3.73;;;2.27;;
2944;SDS011;1482;51.398;7.128;2023-06-14T10:02:18;5.67;;;3.63;;
2944;SDS011;1482;51.398;7.128;2023-06-14T10:05:24;2.70;;;1.90;;
2944;SDS011;1482;51.398;7.128;2023-06-14T10:07:48;2.83;;;1.80;;
2944;SDS011;1482;51.398;7.128;2023-06-14T10:10:14;7.83;;;2.00;;
2944;SDS011;1482;51.398;7.128;2023-06-14T10:12:40;3.40;;;1.80;;
2944;SDS011;1482;51.398;7.128;2023-06-14T10:15:07;2.03;;;1.83;;
2944;SDS011;1482;51.398;7.128;2023-06-14T10:22:49;2.53;;;2.10;;
2944;SDS011;1482;51.398;7.128;2023-06-14T10:25:27;2.70;;;2.27;;
2944;SDS011;1482;51.398;7.128;2023-06-14T10:28:02;2.37;;;1.90;;
2944;SDS011;1482;51.398;7.128;2023-06-14T10:30:37;4.70;;;2.00;;
2944;SDS011;1482;51.398;7.128;2023-06-14T10:33:03;2.13;;;1.93;;
2944;SDS011;1482;51.398;7.128;2023-06-14T10:35:30;3.83;;;2.00;;
2944;SDS011;1482;51.398;7.128;2023-06-14T10:38:03;5.77;;;2.33;;
2944;SDS011;1482;51.398;7.128;2023-06-14T10:40:32;3.70;;;2.10;;
2944;SDS011;1482;51.398;7.128;2023-06-14T10:42:58;6.40;;;2.60;;
2944;SDS011;1482;51.398;7.128;2023-06-14T10:45:23;2.40;;;2.20;;
2944;SDS011;1482;51.398;7.128;2023-06-14T10:47:49;2.33;;;1.93;;
2944;SDS011;1482;51.398;7.128;2023-06-14T10:50:17;2.33;;;2.00;;
2944;SDS011;1482;51.398;7.128;2023-06-14T10:52:52;6.50;;;2.10;;
2944;SDS011;1482;51.398;7.128;2023-06-14T10:55:17;2.37;;;2.17;;
2944;SDS011;1482;51.398;7.128;2023-06-14T10:57:47;2.10;;;1.90;;
2944;SDS011;1482;51.398;7.128;2023-06-14T11:00:27;2.90;;;2.27;;
2944;SDS011;1482;51.398;7.128;2023-06-14T11:05:41;2.17;;;1.97;;
2944;SDS011;1482;51.398;7.128;2023-06-14T11:11:21;2.10;;;2.00;;
2944;SDS011;1482;51.398;7.128;2023-06-14T11:13:48;6.40;;;2.10;;
2944;SDS011;1482;51.398;7.128;2023-06-14T11:16:14;2.00;;;1.80;;
2944;SDS011;1482;51.398;7.128;2023-06-14T11:18:41;2.73;;;1.90;;
2944;SDS011;1482;51.398;7.128;2023-06-14T11:21:07;1.93;;;1.73;;
2944;SDS011;1482;51.398;7.128;2023-06-14T11:23:34;2.90;;;1.70;;
2944;SDS011;1482;51.398;7.128;2023-06-14T11:26:00;2.63;;;2.20;;
2944;SDS011;1482;51.398;7.128;2023-06-14T11:28:35;1.90;;;1.80;;
2944;SDS011;1482;51.398;7.128;2023-06-14T11:31:04;2.13;;;1.53;;
2944;SDS011;1482;51.398;7.128;2023-06-14T11:33:30;2.20;;;2.00;;
2944;SDS011;1482;51.398;7.128;2023-06-14T11:35:55;5.10;;;2.47;;
2944;SDS011;1482;51.398;7.128;2023-06-14T11:38:21;3.50;;;2.03;;
2944;SDS011;1482;51.398;7.128;2023-06-14T11:40:46;2.20;;;1.80;;
2944;SDS011;1482;51.398;7.128;2023-06-14T11:43:12;2.33;;;1.77;;
2944;SDS011;1482;51.398;7.128;2023-06-14T11:45:38;5.73;;;2.53;;
2944;SDS011;1482;51.398;7.128;2023-06-14T11:48:04;4.70;;;3.27;;
2944;SDS011;1482;51.398;7.128;2023-06-14T11:50:31;2.53;;;2.20;;
2944;SDS011;1482;51.398;7.128;2023-06-14T11:53:01;3.63;;;2.40;;
2944;SDS011;1482;51.398;7.128;2023-06-14T11:55:35;7.73;;;2.07;;
2944;SDS011;1482;51.398;7.128;2023-06-14T11:58:02;3.60;;;2.50;;
2944;SDS011;1482;51.398;7.128;2023-06-14T12:00:28;12.00;;;2.77;;
2944;SDS011;1482;51.398;7.128;2023-06-14T12:02:54;2.37;;;2.10;;
2944;SDS011;1482;51.398;7.128;2023-06-14T12:05:21;4.80;;;2.80;;
2944;SDS011;1482;51.398;7.128;2023-06-14T12:07:48;2.80;;;2.60;;
2944;SDS011;1482;51.398;7.128;2023-06-14T12:10:15;4.83;;;2.27;;
2944;SDS011;1482;51.398;7.128;2023-06-14T12:12:42;2.90;;;2.70;;
2944;SDS011;1482;51.398;7.128;2023-06-14T12:15:08;3.43;;;2.53;;
2944;SDS011;1482;51.398;7.128;2023-06-14T12:17:36;3.33;;;2.60;;
2944;SDS011;1482;51.398;7.128;2023-06-14T12:20:06;3.87;;;2.80;;
2944;SDS011;1482;51.398;7.128;2023-06-14T12:22:36;3.30;;;3.00;;
2944;SDS011;1482;51.398;7.128;2023-06-14T12:25:03;3.10;;;2.80;;
2944;SDS011;1482;51.398;7.128;2023-06-14T12:27:29;2.23;;;2.03;;
2944;SDS011;1482;51.398;7.128;2023-06-14T12:29:59;5.50;;;3.43;;
2944;SDS011;1482;51.398;7.128;2023-06-14T12:32:28;10.40;;;4.00;;
2944;SDS011;1482;51.398;7.128;2023-06-14T12:34:54;3.40;;;3.10;;
2944;SDS011;1482;51.398;7.128;2023-06-14T12:37:20;4.47;;;3.03;;
2944;SDS011;1482;51.398;7.128;2023-06-14T12:39:45;7.97;;;3.43;;
2944;SDS011;1482;51.398;7.128;2023-06-14T12:42:11;5.03;;;2.50;;
2944;SDS011;1482;51.398;7.128;2023-06-14T12:44:40;4.87;;;3.00;;
2944;SDS011;1482;51.398;7.128;2023-06-14T12:47:06;5.67;;;2.70;;
2944;SDS011;1482;51.398;7.128;2023-06-14T12:49:32;3.30;;;3.00;;
2944;SDS011;1482;51.398;7.128;2023-06-14T12:51:58;3.63;;;2.50;;
2944;SDS011;1482;51.398;7.128;2023-06-14T12:54:23;5.50;;;3.33;;
2944;SDS011;1482;51.398;7.128;2023-06-14T12:56:50;3.17;;;2.90;;
2944;SDS011;1482;51.398;7.128;2023-06-14T12:59:16;6.60;;;3.23;;
2944;SDS011;1482;51.398;7.128;2023-06-14T13:01:43;6.93;;;3.37;;
2944;SDS011;1482;51.398;7.128;2023-06-14T13:04:09;3.93;;;2.90;;
2944;SDS011;1482;51.398;7.128;2023-06-14T13:06:35;3.53;;;3.23;;
2944;SDS011;1482;51.398;7.128;2023-06-14T13:09:01;3.50;;;2.83;;
2944;SDS011;1482;51.398;7.128;2023-06-14T13:11:28;3.20;;;2.90;;
2944;SDS011;1482;51.398;7.128;2023-06-14T13:13:54;5.20;;;2.93;;
2944;SDS011;1482;51.398;7.128;2023-06-14T13:16:20;3.00;;;2.60;;
2944;SDS011;1482;51.398;7.128;2023-06-14T13:18:45;3.27;;;2.90;;
2944;SDS011;1482;51.398;7.128;2023-06-14T13:21:11;5.27;;;3.10;;
2944;SDS011;1482;51.398;7.128;2023-06-14T13:23:36;4.33;;;3.13;;
2944;SDS011;1482;51.398;7.128;2023-06-14T13:26:02;4.07;;;2.40;;
2944;SDS011;1482;51.398;7.128;2023-06-14T13:28:27;2.83;;;2.63;;
2944;SDS011;1482;51.398;7.128;2023-06-14T13:30:53;3.80;;;2.80;;
2944;SDS011;1482;51.398;7.128;2023-06-14T13:33:20;2.90;;;2.70;;
2944;SDS011;1482;51.398;7.128;2023-06-14T13:35:46;7.80;;;3.00;;
2944;SDS011;1482;51.398;7.128;2023-06-14T13:38:11;7.30;;;3.40;;
2944;SDS011;1482;51.398;7.128;2023-06-14T13:40:37;5.07;;;3.00;;
2944;SDS011;1482;51.398;7.128;2023-06-14T13:43:02;3.67;;;3.30;;
2944;SDS011;1482;51.398;7.128;2023-06-14T13:45:28;3.60;;;2.63;;
2944;SDS011;1482;51.398;7.128;2023-06-14T13:47:54;10.30;;;3.07;;
2944;SDS011;1482;51.398;7.128;2023-06-14T13:50:19;3.37;;;2.53;;
2944;SDS011;1482;51.398;7.128;2023-06-14T13:52:45;2.93;;;2.50;;
2944;SDS011;1482;51.398;7.128;2023-06-14T13:55:11;5.43;;;2.60;;
2944;SDS011;1482;51.398;7.128;2023-06-14T13:57:36;3.30;;;3.00;;
2944;SDS011;1482;51.398;7.128;2023-06-14T14:00:02;3.60;;;3.30;;
2944;SDS011;1482;51.398;7.128;2023-06-14T14:02:28;3.80;;;2.83;;
2944;SDS011;1482;51.398;7.128;2023-06-14T14:04:54;3.43;;;3.10;;
2944;SDS011;1482;51.398;7.128;2023-06-14T14:07:20;4.20;;;3.00;;
2944;SDS011;1482;51.398;7.128;2023-06-14T14:09:47;6.57;;;3.10;;
2944;SDS011;1482;51.398;7.128;2023-06-14T14:12:12;6.90;;;3.07;;
2944;SDS011;1482;51.398;7.128;2023-06-14T14:14:39;2.67;;;2.47;;
2944;SDS011;1482;51.398;7.128;2023-06-14T14:17:05;7.90;;;4.10;;
2944;SDS011;1482;51.398;7.128;2023-06-14T14:19:31;3.10;;;2.87;;
2944;SDS011;1482;51.398;7.128;2023-06-14T14:21:57;4.23;;;2.80;;
2944;SDS011;1482;51.398;7.128;2023-06-14T14:24:23;3.17;;;2.70;;
2944;SDS011;1482;51.398;7.128;2023-06-14T14:26:48;6.83;;;3.90;;
2944;SDS011;1482;51.398;7.128;2023-06-14T14:29:14;6.30;;;3.10;;
2944;SDS011;1482;51.398;7.128;2023-06-14T14:31:40;3.40;;;3.10;;
2944;SDS011;1482;51.398;7.128;2023-06-14T14:34:06;4.03;;;3.43;;
2944;SDS011;1482;51.398;7.128;2023-06-14T14:36:31;3.10;;;2.80;;
2944;SDS011;1482;51.398;7.128;2023-06-14T14:39:02;3.20;;;2.57;;
2944;SDS011;1482;51.398;7.128;2023-06-14T14:41:29;6.93;;;3.63;;
2944;SDS011;1482;51.398;7.128;2023-06-14T14:43:54;4.03;;;3.03;;
2944;SDS011;1482;51.398;7.128;2023-06-14T14:46:20;3.80;;;3.50;;
2944;SDS011;1482;51.398;7.128;2023-06-14T14:48:45;5.40;;;3.37;;
2944;SDS011;1482;51.398;7.128;2023-06-14T14:51:11;5.80;;;3.57;;
2944;SDS011;1482;51.398;7.128;2023-06-14T14:53:37;3.20;;;3.00;;
2944;SDS011;1482;51.398;7.128;2023-06-14T14:56:02;4.87;;;3.40;;
2944;SDS011;1482;51.398;7.128;2023-06-14T14:58:28;3.60;;;3.23;;
2944;SDS011;1482;51.398;7.128;2023-06-14T15:00:53;3.50;;;3.20;;
2944;SDS011;1482;51.398;7.128;2023-06-14T15:03:19;4.43;;;3.23;;
2944;SDS011;1482;51.398;7.128;2023-06-14T15:05:45;4.47;;;2.80;;
2944;SDS011;1482;51.398;7.128;2023-06-14T15:08:11;4.10;;;3.53;;
2944;SDS011;1482;51.398;7.128;2023-06-14T15:10:40;4.80;;;3.67;;
2944;SDS011;1482;51.398;7.128;2023-06-14T15:13:09;3.50;;;3.20;;
2944;SDS011;1482;51.398;7.128;2023-06-14T15:15:35;7.50;;;3.23;;
2944;SDS011;1482;51.398;7.128;2023-06-14T15:18:01;8.10;;;2.87;;
2944;SDS011;1482;51.398;7.128;2023-06-14T15:20:27;3.43;;;3.13;;
2944;SDS011;1482;51.398;7.128;2023-06-14T15:22:53;4.73;;;3.10;;
2944;SDS011;1482;51.398;7.128;2023-06-14T15:25:24;3.30;;;3.00;;